Time,TemperatureF,DewpointF,PressureIn,WindDirection,WindDirectionDegrees,WindSpeedMPH,WindSpeedGustMPH,Humidity,HourlyPrecipIn,Conditions,Clouds,dailyrainin,SoftwareType,DateUTC
2013-01-29 00:11:00,24.0,23.0,-100.00,NW,306,0.0,0.0,95,0.00,,,0.00,,2013-01-29 08:11:00,
2013-01-29 00:21:00,24.0,23.0,-100.00,NW,306,0.0,0.0,95,0.00,,,0.00,,2013-01-29 08:21:00,
2013-01-29 00:31:00,24.0,23.0,-100.00,NW,306,0.0,0.0,95,0.00,,,0.00,,2013-01-29 08:31:00,
2013-01-29 00:41:00,24.0,23.0,-100.00,NW,306,0.0,0.0,95,0.00,,,0.00,,2013-01-29 08:41:00,
2013-01-29 00:51:00,24.0,23.0,-100.00,NW,306,0.0,0.0,95,0.00,,,0.00,,2013-01-29 08:51:00,
2013-01-29 01:22:00,24.0,-99.9,-100.00,WNW,294,0.0,-999.0,-999,0.00,,,0.00,,2013-01-29 09:22:00,
2013-01-29 01:32:00,24.0,-99.9,-100.00,WNW,294,0.0,-999.0,-999,0.00,,,0.00,,2013-01-29 09:32:00,
2013-01-29 01:42:00,24.0,-99.9,-100.00,WNW,294,0.0,-999.0,-999,0.00,,,0.00,,2013-01-29 09:42:00,
2013-01-29 01:52:00,24.0,-99.9,-100.00,WNW,294,0.0,-999.0,-999,0.00,,,0.00,,2013-01-29 09:52:00,
2013-01-29 02:11:00,-999.0,-99.9,-100.00,WNW,297,0.0,-999.0,-999,0.00,,,-99.99,,2013-01-29 10:11:00,
2013-01-29 02:22:00,-999.0,-99.9,-100.00,WNW,297,0.0,-999.0,-999,0.00,,,-99.99,,2013-01-29 10:22:00,
2013-01-29 02:32:00,-999.0,-99.9,-100.00,WNW,297,0.0,-999.0,-999,0.00,,,-99.99,,2013-01-29 10:32:00,
2013-01-29 02:42:00,-999.0,-99.9,-100.00,WNW,297,0.0,-999.0,-999,0.00,,,-99.99,,2013-01-29 10:42:00,
2013-01-29 02:52:00,-999.0,-99.9,-100.00,WNW,297,0.0,-999.0,-999,0.00,,,-99.99,,2013-01-29 10:52:00,
2013-01-29 09:12:00,28.0,27.0,-100.00,NW,310,0.0,0.0,96,-99.99,,,0.00,,2013-01-29 17:12:00,
2013-01-29 09:21:00,28.0,27.0,-100.00,NW,310,0.0,0.0,96,-99.99,,,0.00,,2013-01-29 17:21:00,
2013-01-29 09:32:00,28.0,27.0,-100.00,NW,310,0.0,0.0,96,-99.99,,,0.00,,2013-01-29 17:32:00,
2013-01-29 09:42:00,28.0,27.0,-100.00,NW,310,0.0,0.0,96,-99.99,,,0.00,,2013-01-29 17:42:00,
2013-01-29 09:52:00,28.0,27.0,-100.00,NW,310,0.0,0.0,96,-99.99,,,0.00,,2013-01-29 17:52:00,
2013-01-29 11:22:00,32.0,30.0,-100.00,WNW,291,6.0,11.0,92,-99.99,,,-99.99,,2013-01-29 19:22:00,
2013-01-29 11:32:00,32.0,30.0,-100.00,WNW,291,6.0,11.0,92,-99.99,,,-99.99,,2013-01-29 19:32:00,
2013-01-29 11:42:00,32.0,30.0,-100.00,WNW,291,6.0,11.0,92,-99.99,,,-99.99,,2013-01-29 19:42:00,
2013-01-29 11:52:00,32.0,30.0,-100.00,WNW,291,6.0,11.0,92,-99.99,,,-99.99,,2013-01-29 19:52:00,
2013-01-29 11:53:00,34.0,28.0,-100.00,West,275,6.0,14.0,80,0.00,,,0.03,,2013-01-29 19:53:00,
2013-01-29 12:22:00,34.0,28.0,-100.00,West,275,6.0,14.0,80,0.00,,,0.03,,2013-01-29 20:22:00,
2013-01-29 12:33:00,34.0,28.0,-100.00,West,275,6.0,14.0,80,0.00,,,0.03,,2013-01-29 20:33:00,
2013-01-29 12:42:00,34.0,28.0,-100.00,West,275,6.0,14.0,80,0.00,,,0.03,,2013-01-29 20:42:00,
2013-01-29 13:22:00,38.0,28.0,-100.00,WSW,250,6.0,14.0,67,0.00,,,0.03,,2013-01-29 21:22:00,
2013-01-29 13:33:00,38.0,28.0,-100.00,WSW,250,6.0,14.0,67,0.00,,,0.03,,2013-01-29 21:33:00,
2013-01-29 13:42:00,38.0,28.0,-100.00,WSW,250,6.0,14.0,67,0.00,,,0.03,,2013-01-29 21:42:00,
2013-01-29 13:52:00,38.0,28.0,-100.00,WSW,250,6.0,14.0,67,0.00,,,0.03,,2013-01-29 21:52:00,
2013-01-29 14:22:00,40.0,27.0,-100.00,WNW,287,4.0,12.0,60,0.00,,,0.03,,2013-01-29 22:22:00,
2013-01-29 14:33:00,40.0,27.0,-100.00,WNW,287,4.0,12.0,60,0.00,,,0.03,,2013-01-29 22:33:00,
2013-01-29 14:42:00,40.0,27.0,-100.00,WNW,287,4.0,12.0,60,0.00,,,0.03,,2013-01-29 22:42:00,
2013-01-29 14:52:00,40.0,27.0,-100.00,WNW,287,4.0,12.0,60,0.00,,,0.03,,2013-01-29 22:52:00,
2013-01-29 15:12:00,41.0,27.0,-100.00,WNW,286,5.0,12.0,58,0.00,,,0.03,,2013-01-29 23:12:00,
2013-01-29 15:22:00,41.0,27.0,-100.00,WNW,286,5.0,12.0,58,0.00,,,0.03,,2013-01-29 23:22:00,
2013-01-29 15:32:00,41.0,27.0,-100.00,WNW,286,5.0,12.0,58,0.00,,,0.03,,2013-01-29 23:32:00,
2013-01-29 15:42:00,41.0,27.0,-100.00,WNW,286,5.0,12.0,58,0.00,,,0.03,,2013-01-29 23:42:00,
2013-01-29 15:52:00,41.0,27.0,-100.00,WNW,286,5.0,12.0,58,0.00,,,0.03,,2013-01-29 23:52:00,
2013-01-29 16:11:00,43.0,28.0,-100.00,WNW,284,4.0,12.0,54,0.00,,,0.03,,2013-01-30 00:11:00,
2013-01-29 16:22:00,43.0,28.0,-100.00,WNW,284,4.0,12.0,54,0.00,,,0.03,,2013-01-30 00:22:00,
2013-01-29 16:32:00,43.0,28.0,-100.00,WNW,284,4.0,12.0,54,0.00,,,0.03,,2013-01-30 00:32:00,
2013-01-29 16:42:00,43.0,28.0,-100.00,WNW,284,4.0,12.0,54,0.00,,,0.03,,2013-01-30 00:42:00,
2013-01-29 16:52:00,43.0,28.0,-100.00,WNW,284,4.0,12.0,54,0.00,,,0.03,,2013-01-30 00:52:00,
2013-01-29 17:22:00,37.0,26.0,-100.00,ESE,114,2.0,8.0,65,0.00,,,0.03,,2013-01-30 01:22:00,
2013-01-29 17:32:00,37.0,26.0,-100.00,ESE,114,2.0,8.0,65,0.00,,,0.03,,2013-01-30 01:32:00,
2013-01-29 17:42:00,37.0,26.0,-100.00,ESE,114,2.0,8.0,65,0.00,,,0.03,,2013-01-30 01:42:00,
2013-01-29 17:51:00,37.0,26.0,-100.00,ESE,114,2.0,8.0,65,0.00,,,0.03,,2013-01-30 01:51:00,
2013-01-29 18:12:00,34.0,29.0,-100.00,ESE,123,4.0,7.0,82,0.00,,,0.03,,2013-01-30 02:12:00,
2013-01-29 18:21:00,34.0,29.0,-100.00,ESE,123,4.0,7.0,82,0.00,,,0.03,,2013-01-30 02:21:00,
2013-01-29 18:33:00,34.0,29.0,-100.00,ESE,123,4.0,7.0,82,0.00,,,0.03,,2013-01-30 02:33:00,
2013-01-29 18:42:00,34.0,29.0,-100.00,ESE,123,4.0,7.0,82,0.00,,,0.03,,2013-01-30 02:42:00,
2013-01-29 18:52:00,34.0,29.0,-100.00,ESE,123,4.0,7.0,82,0.00,,,0.03,,2013-01-30 02:52:00,
2013-01-29 19:11:00,34.0,31.0,-100.00,ESE,120,4.0,7.0,88,0.00,,,0.03,,2013-01-30 03:11:00,
2013-01-29 19:22:00,34.0,31.0,-100.00,ESE,120,4.0,7.0,88,0.00,,,0.03,,2013-01-30 03:22:00,
2013-01-29 19:32:00,34.0,31.0,-100.00,ESE,120,4.0,7.0,88,0.00,,,0.03,,2013-01-30 03:32:00,
2013-01-29 19:42:00,34.0,31.0,-100.00,ESE,120,4.0,7.0,88,0.00,,,0.03,,2013-01-30 03:42:00,
2013-01-29 19:51:00,34.0,31.0,-100.00,ESE,120,4.0,7.0,88,0.00,,,0.03,,2013-01-30 03:51:00,
2013-01-29 20:22:00,30.0,27.0,-100.00,North,8,2.0,6.0,89,0.00,,,0.03,,2013-01-30 04:22:00,
2013-01-29 20:32:00,30.0,27.0,-100.00,North,8,2.0,6.0,89,0.00,,,0.03,,2013-01-30 04:32:00,
2013-01-29 20:41:00,30.0,27.0,-100.00,North,8,2.0,6.0,89,0.00,,,0.03,,2013-01-30 04:41:00,
2013-01-29 20:51:00,30.0,27.0,-100.00,North,8,2.0,6.0,89,0.00,,,0.03,,2013-01-30 04:51:00,
2013-01-29 21:12:00,33.0,31.0,-100.00,ESE,119,3.0,5.0,94,0.00,,,0.03,,2013-01-30 05:12:00,
2013-01-29 21:22:00,33.0,31.0,-100.00,ESE,119,3.0,5.0,94,0.00,,,0.03,,2013-01-30 05:22:00,
2013-01-29 21:32:00,33.0,31.0,-100.00,ESE,119,3.0,5.0,94,0.00,,,0.03,,2013-01-30 05:32:00,
2013-01-29 21:42:00,33.0,31.0,-100.00,ESE,119,3.0,5.0,94,0.00,,,0.03,,2013-01-30 05:42:00,
2013-01-29 21:51:00,33.0,31.0,-100.00,ESE,119,3.0,5.0,94,0.00,,,0.03,,2013-01-30 05:51:00,
2013-01-29 22:11:00,37.0,33.0,-100.00,ESE,113,4.0,6.0,84,0.00,,,0.03,,2013-01-30 06:11:00,
2013-01-29 22:21:00,37.0,33.0,-100.00,ESE,113,4.0,6.0,84,0.00,,,0.03,,2013-01-30 06:21:00,
2013-01-29 22:32:00,37.0,33.0,-100.00,ESE,113,4.0,6.0,84,0.00,,,0.03,,2013-01-30 06:32:00,
2013-01-29 22:41:00,37.0,33.0,-100.00,ESE,113,4.0,6.0,84,0.00,,,0.03,,2013-01-30 06:41:00,
2013-01-29 22:51:00,37.0,33.0,-100.00,ESE,113,4.0,6.0,84,0.00,,,0.03,,2013-01-30 06:51:00,
2013-01-29 23:11:00,41.0,31.0,-100.00,ESE,113,5.0,10.0,68,0.00,,,0.03,,2013-01-30 07:11:00,
2013-01-29 23:21:00,41.0,31.0,-100.00,ESE,113,5.0,10.0,68,0.00,,,0.03,,2013-01-30 07:21:00,
2013-01-29 23:31:00,41.0,31.0,-100.00,ESE,113,5.0,10.0,68,0.00,,,0.03,,2013-01-30 07:31:00,
2013-01-29 23:41:00,41.0,31.0,-100.00,ESE,113,5.0,10.0,68,0.00,,,0.03,,2013-01-30 07:41:00,
2013-01-29 23:52:00,41.0,31.0,-100.00,ESE,113,5.0,10.0,68,0.00,,,0.03,,2013-01-30 07:52:00,